createdAt,value
2018-09-24T07:28:58.691Z,1001
2018-09-24T07:31:58.668Z,1001
2018-09-24T07:34:58.672Z,1001
2018-09-24T07:37:58.779Z,1001
2018-09-24T07:40:58.716Z,1001
2018-09-24T07:43:58.700Z,1001
2018-09-24T07:46:58.718Z,1001
2018-09-24T07:49:58.693Z,1001
2018-09-24T07:52:58.695Z,1001
2018-09-24T07:55:58.707Z,1001
2018-09-24T07:58:58.763Z,1002
2018-09-24T08:01:58.750Z,1003
2018-09-24T08:04:58.862Z,1004
2018-09-24T08:07:58.742Z,1006
2018-09-24T08:10:58.875Z,1008
2018-09-24T08:13:58.794Z,1010
2018-09-24T08:16:58.772Z,1013
2018-09-24T08:19:58.792Z,1017
2018-09-24T08:22:58.917Z,1020
2018-09-24T08:25:58.929Z,1017
2018-09-24T08:28:58.942Z,1017
2018-09-24T08:31:58.954Z,1016
2018-09-24T08:34:58.859Z,1010
2018-09-24T08:37:58.925Z,1013
2018-09-24T08:40:58.881Z,1020
2018-09-24T08:43:58.899Z,1023
2018-09-24T08:46:58.903Z,1022
2018-09-24T08:49:58.913Z,1016
2018-09-24T08:52:58.899Z,1016
2018-09-24T08:55:59.052Z,1019
2018-09-24T08:58:59.081Z,1021
2018-09-24T09:01:58.986Z,1021
2018-09-24T09:04:58.985Z,1021
2018-09-24T09:07:59.096Z,1020
2018-09-24T09:10:59.026Z,1019
2018-09-24T09:13:59.069Z,1015
2018-09-24T09:16:59.043Z,1012
2018-09-24T09:19:59.051Z,1010
2018-09-24T09:22:59.059Z,1007
2018-09-24T09:25:59.081Z,1007
2018-09-24T09:28:59.101Z,1008
2018-09-24T09:31:59.097Z,1008
2018-09-24T09:34:59.217Z,1008
2018-09-24T09:37:59.155Z,1006
2018-09-24T09:40:59.243Z,1005
2018-09-24T09:43:59.189Z,1005
2018-09-24T09:46:59.178Z,1004
2018-09-24T09:49:59.191Z,1004
2018-09-24T09:52:59.215Z,1003
2018-09-24T09:55:59.242Z,1003
2018-09-24T09:58:59.268Z,1002
2018-09-24T10:01:59.246Z,1002
2018-09-24T10:04:59.280Z,1002
2018-09-24T10:07:59.281Z,1001
2018-09-24T10:10:59.309Z,1001
2018-09-24T10:13:59.316Z,1001
2018-09-24T10:16:59.324Z,1001
2018-09-24T10:19:59.354Z,1001
2018-09-24T10:22:59.576Z,1001
2018-09-24T10:25:59.348Z,1001
2018-09-24T10:28:59.468Z,1001
2018-09-24T10:31:59.358Z,1001
2018-09-24T10:34:59.505Z,1001
2018-09-24T10:37:59.396Z,1001
2018-09-24T10:40:59.445Z,1000
2018-09-24T10:43:59.887Z,1000
2018-09-24T10:46:59.573Z,1001
2018-09-24T10:49:59.508Z,1001
2018-09-24T10:52:59.668Z,1001
2018-09-24T10:55:59.534Z,1001
2018-09-24T10:58:59.603Z,1001
2018-09-24T11:01:59.582Z,1001
2018-09-24T11:04:59.601Z,1001
2018-09-24T11:07:59.657Z,1001
2018-09-24T11:10:59.705Z,1001
2018-09-24T11:13:59.699Z,1001
2018-09-24T11:16:59.817Z,1001
2018-09-24T11:19:59.733Z,1001
2018-09-24T11:22:59.764Z,1001
2018-09-24T11:28:59.817Z,1001
2018-09-24T11:31:59.824Z,1001
2018-09-24T11:34:59.867Z,1001
2018-09-24T11:37:59.962Z,1001
2018-09-24T11:40:59.897Z,1001
2018-09-24T11:44:00.037Z,1001
2018-09-24T11:47:00.095Z,1001
2018-09-24T11:49:59.943Z,1001
2018-09-24T11:53:00.074Z,1001
2018-09-24T11:55:59.980Z,1002
2018-09-24T11:59:00.020Z,1002
2018-09-24T12:02:00.150Z,1002
2018-09-24T12:05:00.057Z,1001
2018-09-24T12:08:00.058Z,1001
2018-09-24T12:11:00.085Z,1001
2018-09-24T12:14:00.074Z,1001
2018-09-24T12:17:00.182Z,1001
2018-09-24T12:20:00.077Z,1001
2018-09-24T12:23:00.092Z,1001
2018-09-24T12:26:00.106Z,1001
2018-09-24T12:29:00.411Z,1002
2018-09-24T12:32:00.216Z,1002
2018-09-24T12:35:00.164Z,1002
2018-09-24T12:38:00.181Z,1001
2018-09-24T12:41:00.313Z,1001
2018-09-24T12:44:00.228Z,1001
2018-09-24T12:47:00.394Z,1001
2018-09-24T12:50:00.300Z,1001
2018-09-24T12:53:00.286Z,1001
2018-09-24T12:56:00.332Z,1001
2018-09-24T12:59:00.481Z,1001
2018-09-24T13:02:00.399Z,1001
2018-09-24T13:05:00.530Z,1001
2018-09-24T13:08:00.408Z,1001
2018-09-24T13:11:00.446Z,1001
2018-09-24T13:14:00.893Z,1001
2018-09-24T13:17:00.523Z,1001
2018-09-24T13:23:00.557Z,1001
2018-09-24T13:26:00.565Z,1001
2018-09-24T13:29:00.568Z,1001
2018-09-24T13:32:00.612Z,1001
2018-09-24T13:35:00.721Z,1001
2018-09-24T13:38:00.649Z,1001
2018-09-24T13:41:00.676Z,1001
2018-09-24T13:44:00.705Z,1001
2018-09-24T13:47:00.723Z,1001
2018-09-24T13:50:00.716Z,1001
2018-09-24T13:53:00.712Z,1001
2018-09-24T13:56:00.743Z,1001
2018-09-24T13:59:00.958Z,1001
2018-09-24T14:02:00.910Z,1001
2018-09-24T14:05:00.792Z,1001
2018-09-24T14:08:00.793Z,1001
2018-09-24T14:11:00.841Z,1000
2018-09-24T14:14:00.806Z,1000
2018-09-24T14:20:00.773Z,1000
2018-09-24T14:23:00.827Z,1000
2018-09-24T14:26:01.245Z,1000
2018-09-24T14:32:00.746Z,1000
2018-09-24T14:35:00.819Z,1000
2018-09-24T14:38:00.777Z,1000
2018-09-24T14:41:00.789Z,1000
2018-09-24T14:44:00.728Z,1000
2018-09-24T14:50:00.799Z,1000
2018-09-24T14:53:00.876Z,1000
2018-09-24T14:56:00.774Z,1000
2018-09-24T14:59:01.036Z,1000
2018-09-24T15:02:00.916Z,1001
2018-09-24T15:05:00.959Z,1001
2018-09-24T15:08:00.822Z,1000
2018-09-24T15:11:00.827Z,1000
2018-09-24T15:14:00.834Z,1000
2018-09-24T15:17:00.945Z,1000
2018-09-24T15:35:00.787Z,1000
2018-09-24T15:38:00.761Z,1000
2018-09-24T15:41:00.794Z,1000
2018-09-24T15:44:00.880Z,1000
2018-09-24T15:47:00.763Z,1000
2018-09-24T15:50:00.778Z,1000
2018-09-24T15:53:00.768Z,1000
2018-09-24T15:56:00.755Z,1000
2018-09-24T15:59:00.736Z,1000
2018-09-24T16:02:01.056Z,1000
2018-09-24T16:05:00.754Z,1000
2018-09-24T16:08:00.729Z,1000
2018-09-24T16:11:00.739Z,1000
2018-09-24T16:14:00.718Z,1000
2018-09-24T16:17:00.734Z,1000
